Tottington, United Kingdom
Current Conditions -  °F | °C
As of 4:20 PM on Thursday 29 Jan 2015 (Local Time) from EGCC Reporting Station
Snow Showers Snow Showers  
Wind Chill: 26°   Ceiling: 3700
Heat Index: 34°   Visibility: 5mi
Dew Point: 32°   Wind: 9mph
Humidity: 93%   Direction: 290°WNW
Pressure: 28.82"   Gusts: 24mph
Location:  53.61°N, 2.34°W
Report Text: EGCC 291620Z 29008G21KT 210V320 8000 -SHSNRA FEW019 BKN037 01/M00 Q0976
Loading
Personal Weather Stations






























Interactive Weather Map New forecast layout! Learn more

10-Day Weather Forecast

Advertisements
Track Severe Weather on mobile